Flight Track Log - Related Links

Times and Time Zones

All times are in EDT time to prevent confusion due to time zone crossing. See the AWE282 flight status page for this flight to view local times or setup timezone preferences in your user account.

Time Position Orientation Groundspeed Altitude Reporting Facility
EDT Latitude Longitude Course Direction KTS MPH feet Rate Location/Type
Fri 10:27:48 AM 33.4333 -112.0333 281° West 144 166 1,900  Level Phoenix TRACON
Fri 10:28:30 AM 33.4167 -112.0667 239° Southwest 173 199 3,000 1,838 Climbing Phoenix TRACON
Fri 10:29:39 AM 33.4022 -112.1428 257° West 228 262 5,300 2,565 Climbing Albuquerque Center
Fri 10:30:00 AM 33.4356 -112.4387 273° West  Level FlightAware Approximate
Fri 10:30:41 AM 33.3786 -112.2294 252° West 267 307 8,600  Level Albuquerque Center
Fri 10:31:00 AM 33.4416 -112.5848 273° West  Level FlightAware Approximate
Fri 10:31:43 AM 33.3997 -112.3222 285° West 293 337 11,400  Level Albuquerque Center
Fri 10:32:00 AM 33.4473 -112.7310 273° West  Level FlightAware Approximate
Fri 10:32:44 AM 33.4214 -112.4361 283° West 353 406 12,000  Level Albuquerque Center
Fri 10:33:00 AM 33.4599 -112.8760 281° West  Level FlightAware Approximate
Fri 10:33:46 AM 33.4308 -112.5611 275° West 374 430 12,600  Level Albuquerque Center
Fri 10:34:47 AM 33.4444 -112.6994 277° West 381 438 15,800 1,707 Climbing Albuquerque Center
Fri 10:35:49 AM 33.4556 -112.8325 276° West 394 453 16,100 1,548 Climbing Albuquerque Center
Fri 10:36:51 AM 33.4814 -112.9622 283° West 402 463 19,000 2,341 Climbing Albuquerque Center
Fri 10:37:52 AM 33.5058 -113.0917 283° West 400 460 20,900 1,854 Climbing Albuquerque Center
Fri 10:38:54 AM 33.5300 -113.2217 283° West 401 461 22,800 1,220 Climbing Albuquerque Center
Fri 10:39:55 AM 33.5558 -113.3544 283° West 407 468 23,400 1,366 Climbing Albuquerque Center
Fri 10:40:57 AM 33.5886 -113.5153 284° West 415 478 25,600 1,694 Climbing Albuquerque Center
Fri 10:41:59 AM 33.6228 -113.6447 288° West 427 491 26,900 732 Climbing Albuquerque Center
Fri 10:43:00 AM 33.6861 -113.7697 301° West 435 501 27,100 1,024 Climbing Albuquerque Center
Fri 10:44:02 AM 33.7611 -113.8908 307° West 448 516 29,000 1,805 Climbing Albuquerque Center
Fri 10:45:03 AM 33.8089 -114.0253 293° West 447 514 30,800 2,083 Climbing Albuquerque Center
Fri 10:46:03 AM 33.8450 -114.1772 286° West 435 501 33,200 1,587 Climbing Los Angeles Center
Fri 10:47:04 AM 33.8758 -114.3144 285° West 429 494 34,000 341 Climbing Los Angeles Center
Fri 10:48:06 AM 33.9069 -114.4511 285° West 427 491 33,900 -49 Descending Los Angeles Center
Fri 10:49:07 AM 33.9367 -114.5883 285° West 426 490 33,900  Level Los Angeles Center
Fri 10:50:09 AM 33.9728 -114.7519 285° West 423 487 33,900 49 Level Los Angeles Center
Fri 10:51:10 AM 34.0014 -114.8894 284° West 425 489 34,000 49 Climbing Los Angeles Center
Fri 10:52:11 AM 34.0300 -115.0236 284° West 419 482 34,000  Level Los Angeles Center
Fri 10:53:13 AM 34.0586 -115.1597 284° West 419 482 34,000 -49 Level Los Angeles Center
Fri 10:54:14 AM 34.0875 -115.2956 284° West 420 483 33,900 -49 Descending Los Angeles Center
Fri 10:55:16 AM 34.1164 -115.4314 284° West 420 483 33,900 49 Level Los Angeles Center
Fri 10:56:17 AM 34.1436 -115.5669 284° West 419 482 34,000 49 Climbing Los Angeles Center
Fri 10:57:19 AM 34.1711 -115.7017 284° West 416 479 34,000  Level Los Angeles Center
Fri 10:58:32 AM 34.2053 -115.8642 284° West 419 482 34,000  Level Los Angeles Center
Fri 10:59:34 AM 34.2361 -116.0233 283° West 419 482 34,000  Level Los Angeles Center
Fri 11:00:36 AM 34.2633 -116.1578 284° West 415 478 34,000  Level Los Angeles Center
Fri 11:01:37 AM 34.2919 -116.2956 284° West 421 484 34,000  Level Los Angeles Center
Fri 11:02:39 AM 34.3189 -116.4322 283° West 420 483 34,000  Level Los Angeles Center
Fri 11:03:40 AM 34.3433 -116.5714 282° West 422 486 34,000  Level Los Angeles Center
Fri 11:04:42 AM 34.3700 -116.7075 283° West 420 483 34,000  Level Los Angeles Center
Fri 11:05:44 AM 34.4025 -116.8717 284° West 419 482 34,000  Level Los Angeles Center
Fri 11:06:45 AM 34.4294 -117.0089 283° West 419 482 34,000  Level Los Angeles Center
Fri 11:07:47 AM 34.4556 -117.1447 283° West 417 480 34,000  Level Los Angeles Center
Fri 11:08:48 AM 34.4811 -117.2800 283° West 414 476 34,000  Level Los Angeles Center
Fri 11:09:50 AM 34.5081 -117.4156 284° West 412 474 34,000  Level Los Angeles Center
Fri 11:10:52 AM 34.5333 -117.5553 282° West 419 482 34,000  Level Los Angeles Center
Fri 11:11:53 AM 34.5586 -117.6919 283° West 416 479 34,000  Level Los Angeles Center
Fri 11:12:55 AM 34.5847 -117.8283 283° West 414 476 34,000  Level Los Angeles Center
Fri 11:13:57 AM 34.6100 -117.9669 283° West 416 479 34,000  Level Los Angeles Center
Fri 11:14:59 AM 34.6692 -118.1189 295° West 416 479 34,000  Level Los Angeles Center
Fri 11:16:00 AM 34.7436 -118.2303 309° West 418 481 34,000  Level Los Angeles Center
Fri 11:17:02 AM 34.8194 -118.3408 310° West 423 487 34,000  Level Los Angeles Center
Fri 11:18:04 AM 34.8944 -118.4494 310° West 419 482 34,000 -44 Level Los Angeles Center
Fri 11:19:18 AM 34.9819 -118.5739 311° West 417 480 33,900 -44 Descending Los Angeles Center
Fri 11:20:19 AM 35.0492 -118.6903 305° West 419 482 33,900 49 Level Los Angeles Center
Fri 11:21:21 AM 35.1153 -118.8386 299° West 418 481 34,000 48 Climbing Los Angeles Center
Fri 11:22:23 AM 35.1744 -118.9611 301° West 418 481 34,000  Level Los Angeles Center
Fri 11:23:25 AM 35.2342 -119.0850 301° West 421 484 34,000  Level Los Angeles Center
Fri 11:24:27 AM 35.2900 -119.2089 299° West 419 482 34,000  Level Los Angeles Center
Fri 11:25:28 AM 35.3386 -119.3364 295° West 418 481 34,000 -49 Level Los Angeles Center
Fri 11:26:30 AM 35.3878 -119.4625 296° West 414 476 33,900 -48 Descending Los Angeles Center
Fri 11:27:32 AM 35.4492 -119.6147 296° West 414 476 33,900 48 Level Los Angeles Center
Fri 11:28:34 AM 35.4972 -119.7389 295° West 407 468 34,000  Climbing Los Angeles Center
Fri 11:29:36 AM 35.5456 -119.8633 296° West 404 465 33,900 -48 Descending Los Angeles Center
Fri 11:30:38 AM 35.5947 -119.9886 296° West 407 468 33,900 48 Level Los Angeles Center
Fri 11:31:40 AM 35.6439 -120.1150 296° West 412 474 34,000 48 Climbing Los Angeles Center
Fri 11:32:42 AM 35.7014 -120.2681 295° West 416 479 34,000 -290 Level Los Angeles Center
Fri 11:33:44 AM 35.7492 -120.3947 295° West 413 475 33,400 -774 Descending Los Angeles Center
Fri 11:34:46 AM 35.7989 -120.5225 296° West 417 480 32,400 -919 Descending Los Angeles Center
Fri 11:35:48 AM 35.8728 -120.6333 309° West 423 487 31,500 -919 Descending Los Angeles Center
Fri 11:36:50 AM 35.9525 -120.7414 312° West 425 489 30,500 -1,065 Descending Los Angeles Center
Fri 11:37:52 AM 36.0506 -120.8719 313° West 431 496 29,300 -1,244 Descending Los Angeles Center
Fri 11:39:05 AM 36.1461 -120.9992 313° West 431 496 27,700 -1,733 Descending Oakland Center
Fri 11:40:07 AM 36.2250 -121.1069 312° West 426 490 25,400 -2,244 Descending Oakland Center
Fri 11:41:08 AM 36.3014 -121.2114 312° West 416 479 23,100 -2,361 Descending Oakland Center
Fri 11:42:09 AM 36.3764 -121.3117 313° West 403 464 20,600 -2,508 Descending Oakland Center
Fri 11:43:10 AM 36.4483 -121.4128 312° West 396 456 18,000 -2,607 Descending Oakland Center
Fri 11:44:11 AM 36.5547 -121.4439 347° North 406 467 15,300 -2,311 Descending Oakland Center
Fri 11:45:12 AM 36.6583 -121.4708 348° North 391 450 13,300 -1,820 Descending Oakland Center
Fri 11:46:13 AM 36.7492 -121.4925 349° North 348 400 11,600 -1,463 Descending Oakland Center
Fri 11:47:15 AM 36.8358 -121.5150 348° North 320 368 10,300 -1,561 Descending Oakland Center
Fri 11:48:16 AM 36.9153 -121.5394 346° North 303 349 8,400 -1,770 Descending Oakland Center
Fri 11:49:17 AM 36.9983 -121.5994 330° Northwest 291 335 6,700 -1,180 Descending Oakland Center
Fri 11:50:18 AM 37.0611 -121.6444 330° Northwest 270 311 6,000 -787 Descending Oakland Center
Fri 11:51:19 AM 37.1197 -121.6833 332° Northwest 243 280 5,100 -629 Descending Oakland Center
Fri 11:52:22 AM 37.1667 -121.7167 330° Northwest 194 223 4,700 -615 Descending Northern Cal TRACON
Fri 11:53:16 AM 37.2000 -121.7667 310° West 184 212 3,900 -947 Descending Northern Cal TRACON
Fri 11:54:16 AM 37.2500 -121.8000 332° Northwest 172 198 2,900 -1,000 Descending Northern Cal TRACON

Login

Don't have an account? Register now (free) for customized features, flight alerts, and more!